Time;durP1;ratioP1;P1;durP2;ratioP2;P2;SDS_P1;SDS_P2;PMS_P1;PMS_P2;Temp;Humidity;BMP_temperature;BMP_pressure;BME280_temperature;BME280_humidity;BME280_pressure;Samples;Min_cycle;Max_cycle;Signal;HPM_P1;HPM_P2
2023/07/18 00:00:35;;;;;;;9.52;4.60;;;;;;;;;;6303997;22;20010;-66
2023/07/18 00:03:03;;;;;;;9.57;5.32;;;;;;;;;;6149492;23;20469;-66
2023/07/18 00:05:30;;;;;;;10.60;4.45;;;;;;;;;;6149915;23;20087;-67
2023/07/18 00:07:56;;;;;;;7.88;5.00;;;;;;;;;;6149613;22;20013;-67
2023/07/18 00:10:22;;;;;;;6.95;4.13;;;;;;;;;;6150190;23;20374;-67
2023/07/18 00:12:49;;;;;;;8.57;4.35;;;;;;;;;;6150835;22;20008;-66
2023/07/18 00:15:14;;;;;;;7.97;4.18;;;;;;;;;;6149744;23;20450;-67
2023/07/18 00:17:41;;;;;;;7.45;4.40;;;;;;;;;;6305078;22;20014;-67
2023/07/18 00:20:17;;;;;;;6.15;4.10;;;;;;;;;;6277188;22;20314;-66
2023/07/18 00:22:49;;;;;;;11.32;4.43;;;;;;;;;;6150650;22;20020;-66
2023/07/18 00:25:18;;;;;;;7.43;4.63;;;;;;;;;;6150574;23;20014;-67
2023/07/18 00:27:46;;;;;;;7.28;5.00;;;;;;;;;;6150962;22;20010;-67
2023/07/18 00:30:13;;;;;;;12.18;5.55;;;;;;;;;;6149675;23;20398;-66
2023/07/18 00:32:42;;;;;;;9.60;4.78;;;;;;;;;;6149790;23;20339;-66
2023/07/18 00:35:11;;;;;;;11.80;4.85;;;;;;;;;;6150924;23;20002;-66
2023/07/18 00:37:41;;;;;;;11.75;4.68;;;;;;;;;;6150946;22;20016;-66
2023/07/18 00:40:11;;;;;;;14.70;5.25;;;;;;;;;;6151013;23;20018;-67
2023/07/18 00:42:38;;;;;;;11.32;5.13;;;;;;;;;;6150726;23;20005;-67
2023/07/18 00:45:05;;;;;;;8.23;5.00;;;;;;;;;;6150670;23;20331;-66
2023/07/18 00:47:37;;;;;;;10.85;5.07;;;;;;;;;;6279199;22;20022;-66
2023/07/18 00:50:08;;;;;;;9.55;5.43;;;;;;;;;;6253444;22;20017;-66
2023/07/18 00:52:48;;;;;;;8.60;5.38;;;;;;;;;;6150822;22;20435;-67
2023/07/18 00:55:14;;;;;;;15.02;5.60;;;;;;;;;;6308155;22;20014;-67
2023/07/18 00:57:41;;;;;;;11.60;5.68;;;;;;;;;;6280353;22;20433;-67
2023/07/18 01:00:10;;;;;;;8.48;4.97;;;;;;;;;;6306228;22;20011;-66
2023/07/18 01:02:38;;;;;;;15.48;5.72;;;;;;;;;;6308153;22;20082;-67
2023/07/18 01:05:06;;;;;;;18.02;5.75;;;;;;;;;;6278828;22;20017;-66
2023/07/18 01:07:34;;;;;;;17.42;6.03;;;;;;;;;;6306304;22;20082;-67
2023/07/18 01:10:23;;;;;;;15.68;5.70;;;;;;;;;;6306814;22;20425;-66
2023/07/18 01:12:50;;;;;;;12.45;6.10;;;;;;;;;;6306639;22;20003;-66
2023/07/18 01:15:18;;;;;;;11.90;5.53;;;;;;;;;;6306201;22;20003;-66
2023/07/18 01:17:45;;;;;;;18.08;5.90;;;;;;;;;;6150738;22;20439;-67
2023/07/18 01:20:33;;;;;;;9.63;5.45;;;;;;;;;;6150348;22;20010;-66
2023/07/18 01:23:05;;;;;;;11.27;5.60;;;;;;;;;;6278681;22;20448;-66
2023/07/18 01:25:33;;;;;;;11.68;5.45;;;;;;;;;;6304820;22;20015;-67
2023/07/18 01:27:59;;;;;;;10.55;5.28;;;;;;;;;;6278992;22;20502;-66
2023/07/18 01:30:28;;;;;;;15.07;6.18;;;;;;;;;;6306154;22;20012;-66
2023/07/18 01:32:54;;;;;;;10.27;5.50;;;;;;;;;;6150809;22;20066;-67
2023/07/18 01:35:25;;;;;;;8.82;5.20;;;;;;;;;;6148594;23;20435;-66
2023/07/18 01:37:52;;;;;;;10.43;5.85;;;;;;;;;;6148946;23;20202;-66
2023/07/18 01:40:22;;;;;;;13.10;5.28;;;;;;;;;;6150707;23;20087;-66
2023/07/18 01:42:51;;;;;;;9.63;5.20;;;;;;;;;;6278461;22;20009;-66
2023/07/18 01:45:21;;;;;;;10.32;5.35;;;;;;;;;;6148665;23;20021;-67
2023/07/18 01:47:49;;;;;;;14.38;5.70;;;;;;;;;;6147873;23;20014;-66
2023/07/18 01:50:15;;;;;;;10.95;5.10;;;;;;;;;;6278346;22;20036;-66
2023/07/18 01:52:40;;;;;;;9.90;5.50;;;;;;;;;;6278560;22;20061;-66
2023/07/18 01:55:07;;;;;;;11.82;5.25;;;;;;;;;;6277978;22;20326;-66
2023/07/18 01:57:46;;;;;;;10.20;5.38;;;;;;;;;;6252269;22;20395;-66
2023/07/18 02:00:18;;;;;;;9.65;5.05;;;;;;;;;;6304099;22;20110;-66
2023/07/18 02:02:48;;;;;;;10.32;5.60;;;;;;;;;;6149764;22;20013;-66
2023/07/18 02:05:16;;;;;;;13.82;5.57;;;;;;;;;;6147538;23;20045;-66
2023/07/18 02:07:42;;;;;;;9.60;4.22;;;;;;;;;;6148093;23;20040;-66
2023/07/18 02:10:08;;;;;;;8.85;5.30;;;;;;;;;;6278005;22;20015;-66
2023/07/18 02:12:33;;;;;;;13.18;6.32;;;;;;;;;;6278288;22;20003;-66
2023/07/18 02:15:01;;;;;;;13.55;5.88;;;;;;;;;;6251674;22;20018;-65
2023/07/18 02:17:27;;;;;;;7.53;5.25;;;;;;;;;;6305622;22;20017;-66
2023/07/18 02:19:53;;;;;;;10.85;5.40;;;;;;;;;;6306503;22;20078;-66
2023/07/18 02:22:21;;;;;;;10.07;5.82;;;;;;;;;;6151150;22;20006;-66
2023/07/18 02:24:48;;;;;;;8.50;5.05;;;;;;;;;;6305618;22;20444;-66
2023/07/18 02:27:14;;;;;;;13.07;5.30;;;;;;;;;;6252147;22;20427;-66
2023/07/18 02:29:40;;;;;;;12.18;5.30;;;;;;;;;;6150537;22;20088;-66
2023/07/18 02:32:06;;;;;;;13.65;6.30;;;;;;;;;;6253887;22;20376;-66
2023/07/18 02:34:33;;;;;;;22.73;6.78;;;;;;;;;;6252966;22;20076;-67
2023/07/18 02:36:58;;;;;;;16.00;6.60;;;;;;;;;;6307288;22;19999;-67
2023/07/18 02:39:24;;;;;;;13.25;5.53;;;;;;;;;;6279495;22;20272;-65
2023/07/18 02:41:50;;;;;;;9.70;5.90;;;;;;;;;;6279290;22;20090;-66
2023/07/18 02:44:15;;;;;;;8.98;4.75;;;;;;;;;;6251776;22;20017;-67
2023/07/18 02:46:41;;;;;;;8.80;5.07;;;;;;;;;;6307255;22;20003;-67
2023/07/18 02:49:07;;;;;;;10.05;5.00;;;;;;;;;;6279748;22;20445;-67
2023/07/18 02:51:33;;;;;;;12.45;5.30;;;;;;;;;;6149151;23;20039;-66
2023/07/18 02:53:59;;;;;;;12.75;5.30;;;;;;;;;;6306742;22;20011;-66
2023/07/18 02:56:24;;;;;;;17.30;6.07;;;;;;;;;;6150320;22;20005;-67
2023/07/18 02:58:50;;;;;;;15.07;5.47;;;;;;;;;;6306620;22;20018;-67
2023/07/18 03:01:19;;;;;;;13.93;6.22;;;;;;;;;;6253719;22;20010;-67
2023/07/18 03:03:45;;;;;;;9.18;4.90;;;;;;;;;;6150480;22;20005;-67
2023/07/18 03:06:11;;;;;;;15.77;5.53;;;;;;;;;;6150370;22;20017;-67
2023/07/18 03:08:37;;;;;;;7.97;4.88;;;;;;;;;;6151162;22;20122;-67
2023/07/18 03:11:06;;;;;;;9.85;5.40;;;;;;;;;;6148789;23;20483;-67
2023/07/18 03:13:31;;;;;;;9.20;5.40;;;;;;;;;;6148843;23;20016;-67
2023/07/18 03:15:57;;;;;;;14.73;5.20;;;;;;;;;;6253270;22;20033;-66
2023/07/18 03:18:24;;;;;;;8.18;5.13;;;;;;;;;;6150295;23;20029;-67
2023/07/18 03:20:50;;;;;;;10.07;5.10;;;;;;;;;;6279385;22;20090;-67
2023/07/18 03:23:16;;;;;;;17.58;5.50;;;;;;;;;;6148542;23;20037;-67
2023/07/18 03:25:42;;;;;;;12.23;6.57;;;;;;;;;;6147938;23;20010;-67
2023/07/18 03:28:08;;;;;;;13.32;6.40;;;;;;;;;;6279464;22;20094;-66
2023/07/18 03:30:34;;;;;;;15.27;6.50;;;;;;;;;;6278953;22;20086;-66
2023/07/18 03:33:00;;;;;;;13.07;6.10;;;;;;;;;;6305370;22;20050;-66
2023/07/18 03:35:26;;;;;;;12.40;6.43;;;;;;;;;;6304946;22;20003;-66
2023/07/18 03:37:56;;;;;;;14.48;6.40;;;;;;;;;;6150044;22;20005;-66
2023/07/18 03:40:22;;;;;;;13.93;6.30;;;;;;;;;;6306040;22;20066;-65
2023/07/18 03:42:47;;;;;;;11.05;5.28;;;;;;;;;;6306558;22;20425;-66
2023/07/18 03:45:14;;;;;;;16.10;5.63;;;;;;;;;;6306391;22;20015;-66
2023/07/18 03:47:40;;;;;;;13.27;6.72;;;;;;;;;;6307336;22;20010;-66
2023/07/18 03:50:09;;;;;;;16.88;6.65;;;;;;;;;;6306275;22;20003;-66
2023/07/18 03:52:34;;;;;;;17.63;6.82;;;;;;;;;;6306117;22;20445;-66
2023/07/18 03:55:00;;;;;;;18.95;5.55;;;;;;;;;;6149010;23;20310;-66
2023/07/18 03:57:27;;;;;;;17.83;6.40;;;;;;;;;;6150433;22;20011;-66
2023/07/18 03:59:53;;;;;;;19.45;6.88;;;;;;;;;;6306599;22;20070;-66
2023/07/18 04:02:19;;;;;;;13.85;5.63;;;;;;;;;;6306744;22;20392;-66
2023/07/18 04:04:44;;;;;;;13.65;6.03;;;;;;;;;;6150551;22;20347;-66
2023/07/18 04:07:10;;;;;;;19.60;6.57;;;;;;;;;;6149988;22;20414;-66
2023/07/18 04:09:36;;;;;;;18.33;6.10;;;;;;;;;;6149897;22;20054;-66
2023/07/18 04:12:01;;;;;;;13.13;6.15;;;;;;;;;;6306080;22;20006;-66
2023/07/18 04:14:27;;;;;;;15.32;5.90;;;;;;;;;;6306547;22;20010;-66
2023/07/18 04:16:53;;;;;;;13.38;5.70;;;;;;;;;;6278662;22;20340;-65
2023/07/18 04:19:19;;;;;;;14.35;6.30;;;;;;;;;;6305991;22;20065;-66
2023/07/18 04:21:45;;;;;;;15.02;5.95;;;;;;;;;;6306394;22;19999;-66
2023/07/18 04:24:11;;;;;;;18.10;5.97;;;;;;;;;;6306268;22;20022;-66
2023/07/18 04:26:36;;;;;;;17.98;5.95;;;;;;;;;;6304552;22;20336;-66
2023/07/18 04:29:06;;;;;;;16.48;6.32;;;;;;;;;;6278096;22;20017;-67
2023/07/18 04:31:31;;;;;;;15.23;6.07;;;;;;;;;;6149779;22;20009;-68
2023/07/18 04:33:57;;;;;;;18.27;6.15;;;;;;;;;;6305375;22;20046;-68
2023/07/18 04:36:23;;;;;;;13.77;6.10;;;;;;;;;;6278212;22;20082;-68
2023/07/18 04:38:48;;;;;;;11.32;5.32;;;;;;;;;;6304023;22;20011;-68
2023/07/18 04:41:14;;;;;;;14.00;5.68;;;;;;;;;;6251923;22;20136;-68
2023/07/18 04:43:40;;;;;;;10.30;5.78;;;;;;;;;;6148654;22;20014;-67
2023/07/18 04:46:07;;;;;;;11.45;5.50;;;;;;;;;;6148954;22;20014;-68
2023/07/18 04:48:34;;;;;;;11.90;5.57;;;;;;;;;;6305916;22;20014;-68
2023/07/18 04:51:01;;;;;;;15.57;5.68;;;;;;;;;;6306581;22;20010;-66
2023/07/18 04:53:28;;;;;;;10.40;5.85;;;;;;;;;;6305559;22;20003;-66
2023/07/18 04:55:55;;;;;;;16.58;5.65;;;;;;;;;;6305800;22;20007;-67
2023/07/18 04:58:23;;;;;;;11.27;5.53;;;;;;;;;;6305327;22;20018;-67
2023/07/18 05:04:45;;;;;;;14.23;5.43;;;;;;;;;;6304451;22;20547;-66
2023/07/18 05:07:11;;;;;;;10.05;5.70;;;;;;;;;;6304564;22;20603;-67
2023/07/18 05:09:37;;;;;;;13.07;5.55;;;;;;;;;;6250636;22;20048;-67
2023/07/18 05:12:03;;;;;;;12.10;5.82;;;;;;;;;;6303784;22;20003;-67
2023/07/18 05:14:28;;;;;;;10.07;5.10;;;;;;;;;;6305967;22;20005;-67
2023/07/18 05:16:54;;;;;;;9.05;5.00;;;;;;;;;;6149633;22;20033;-66
2023/07/18 05:19:20;;;;;;;14.05;5.40;;;;;;;;;;6148548;23;20009;-66
2023/07/18 05:21:46;;;;;;;10.02;5.03;;;;;;;;;;6149222;22;20006;-66
2023/07/18 05:24:12;;;;;;;11.25;5.95;;;;;;;;;;6305684;22;20007;-67
2023/07/18 05:26:38;;;;;;;10.02;5.47;;;;;;;;;;6305470;22;20449;-66
2023/07/18 05:29:03;;;;;;;13.15;5.30;;;;;;;;;;6305985;22;20077;-66
2023/07/18 05:31:29;;;;;;;12.18;5.63;;;;;;;;;;6278197;22;20086;-66
2023/07/18 05:33:55;;;;;;;14.60;4.65;;;;;;;;;;6305253;22;19999;-66
2023/07/18 05:36:20;;;;;;;12.55;5.60;;;;;;;;;;6150161;22;20024;-66
2023/07/18 05:38:46;;;;;;;12.70;5.45;;;;;;;;;;6305776;22;20029;-66
2023/07/18 05:41:12;;;;;;;10.57;5.10;;;;;;;;;;6148188;23;20041;-66
2023/07/18 05:43:38;;;;;;;11.25;5.57;;;;;;;;;;6149657;23;20051;-67
2023/07/18 05:46:04;;;;;;;10.05;4.72;;;;;;;;;;6305544;22;20372;-65
2023/07/18 05:48:30;;;;;;;10.45;5.20;;;;;;;;;;6150179;22;20044;-66
2023/07/18 05:51:00;;;;;;;12.30;5.72;;;;;;;;;;6305296;22;20099;-66
2023/07/18 05:53:26;;;;;;;9.10;5.00;;;;;;;;;;6148936;22;20055;-67
2023/07/18 05:55:52;;;;;;;14.65;5.22;;;;;;;;;;6147706;23;20014;-65
2023/07/18 05:58:18;;;;;;;10.50;5.18;;;;;;;;;;6149663;22;20459;-66
2023/07/18 06:00:44;;;;;;;12.80;5.40;;;;;;;;;;6305731;22;20031;-64
2023/07/18 06:03:10;;;;;;;17.67;7.38;;;;;;;;;;6305422;22;20424;-67
2023/07/18 06:05:35;;;;;;;16.58;6.75;;;;;;;;;;6305412;22;20027;-66
2023/07/18 06:08:03;;;;;;;15.73;5.43;;;;;;;;;;6150033;23;20012;-67
2023/07/18 06:10:29;;;;;;;9.90;5.32;;;;;;;;;;6149767;22;20001;-66
2023/07/18 06:12:54;;;;;;;7.75;4.53;;;;;;;;;;6149196;22;20546;-66
2023/07/18 06:15:20;;;;;;;10.48;5.13;;;;;;;;;;6149580;22;20012;-66
2023/07/18 06:17:46;;;;;;;9.52;4.78;;;;;;;;;;6149486;22;20127;-67
2023/07/18 06:20:12;;;;;;;17.38;4.90;;;;;;;;;;6149997;22;20423;-67
2023/07/18 06:22:39;;;;;;;12.40;5.80;;;;;;;;;;6149276;23;20020;-67
2023/07/18 06:25:05;;;;;;;10.30;5.20;;;;;;;;;;6148105;23;20001;-66
2023/07/18 06:27:31;;;;;;;8.13;4.60;;;;;;;;;;6149050;23;20020;-66
2023/07/18 06:29:58;;;;;;;9.75;4.95;;;;;;;;;;6148961;22;20522;-66
2023/07/18 06:32:25;;;;;;;10.25;5.13;;;;;;;;;;6149315;22;20006;-66
2023/07/18 06:34:51;;;;;;;8.48;4.95;;;;;;;;;;6305487;22;20527;-67
2023/07/18 06:37:16;;;;;;;10.63;5.18;;;;;;;;;;6305504;22;20035;-67
2023/07/18 06:39:42;;;;;;;9.55;4.97;;;;;;;;;;6149013;22;20016;-66
2023/07/18 06:42:08;;;;;;;9.13;4.97;;;;;;;;;;6304523;22;20011;-66
2023/07/18 06:44:34;;;;;;;7.35;4.68;;;;;;;;;;6149043;22;20012;-68
2023/07/18 06:47:00;;;;;;;11.07;4.45;;;;;;;;;;6277517;22;20098;-67
2023/07/18 06:49:26;;;;;;;11.77;5.00;;;;;;;;;;6305433;22;20468;-67
2023/07/18 06:51:52;;;;;;;9.80;5.10;;;;;;;;;;6304797;22;20432;-66
2023/07/18 06:54:18;;;;;;;9.32;4.97;;;;;;;;;;6305097;22;19999;-67
2023/07/18 06:56:45;;;;;;;12.70;4.90;;;;;;;;;;6305170;22;20090;-68
2023/07/18 06:59:11;;;;;;;8.43;4.60;;;;;;;;;;6305296;22;20096;-68
2023/07/18 07:01:36;;;;;;;10.88;4.95;;;;;;;;;;6305053;22;20018;-67
2023/07/18 07:04:02;;;;;;;8.73;4.70;;;;;;;;;;6305378;22;20106;-68
2023/07/18 07:06:28;;;;;;;9.20;4.82;;;;;;;;;;6150160;22;20010;-67
2023/07/18 07:08:54;;;;;;;8.30;4.80;;;;;;;;;;6150600;22;20044;-67
2023/07/18 07:11:19;;;;;;;10.27;4.82;;;;;;;;;;6150413;22;20010;-67
2023/07/18 07:13:45;;;;;;;10.20;4.78;;;;;;;;;;6252773;22;19997;-68
2023/07/18 07:16:11;;;;;;;8.52;4.68;;;;;;;;;;6150519;22;20017;-67
2023/07/18 07:18:36;;;;;;;9.88;4.90;;;;;;;;;;6150345;23;20009;-67
2023/07/18 07:21:04;;;;;;;17.60;5.93;;;;;;;;;;6306832;22;20011;-67
2023/07/18 07:23:30;;;;;;;8.07;4.00;;;;;;;;;;6306690;22;20010;-66
2023/07/18 07:25:57;;;;;;;8.80;4.28;;;;;;;;;;6306853;22;20021;-67
2023/07/18 07:28:23;;;;;;;8.15;4.15;;;;;;;;;;6306639;22;20003;-68
2023/07/18 07:30:52;;;;;;;8.60;4.53;;;;;;;;;;6306869;22;20011;-66
2023/07/18 07:33:19;;;;;;;8.50;4.20;;;;;;;;;;6306938;22;20335;-67
2023/07/18 07:35:45;;;;;;;9.88;4.80;;;;;;;;;;6306972;22;20022;-67
2023/07/18 07:38:11;;;;;;;9.25;5.82;;;;;;;;;;6306711;22;20053;-67
2023/07/18 07:40:37;;;;;;;7.75;4.30;;;;;;;;;;6306376;22;20011;-67
2023/07/18 07:43:02;;;;;;;10.60;4.40;;;;;;;;;;6150395;22;20029;-67
2023/07/18 07:45:28;;;;;;;10.85;4.60;;;;;;;;;;6307419;22;20015;-66
2023/07/18 07:47:54;;;;;;;6.28;4.00;;;;;;;;;;6279657;22;20421;-68
2023/07/18 07:50:20;;;;;;;8.07;4.18;;;;;;;;;;6147535;23;20055;-67
2023/07/18 07:52:45;;;;;;;8.88;4.28;;;;;;;;;;6306087;22;20002;-66
2023/07/18 07:55:12;;;;;;;9.07;3.92;;;;;;;;;;6149984;22;20013;-67
2023/07/18 07:57:38;;;;;;;9.18;4.45;;;;;;;;;;6149621;22;19997;-69
2023/07/18 08:00:05;;;;;;;8.98;4.50;;;;;;;;;;6306075;22;20459;-67
2023/07/18 08:02:32;;;;;;;8.48;4.05;;;;;;;;;;6149932;22;20012;-66
2023/07/18 08:04:57;;;;;;;9.40;4.50;;;;;;;;;;6305599;22;20011;-67
2023/07/18 08:07:23;;;;;;;13.52;4.57;;;;;;;;;;6305804;22;20003;-67
2023/07/18 08:09:50;;;;;;;6.35;4.43;;;;;;;;;;6149835;22;20029;-67
2023/07/18 08:12:15;;;;;;;11.45;4.78;;;;;;;;;;6305695;22;20006;-68
2023/07/18 08:14:41;;;;;;;12.77;4.32;;;;;;;;;;6149990;22;20017;-67
2023/07/18 08:17:07;;;;;;;7.63;4.82;;;;;;;;;;6148934;22;20393;-67
2023/07/18 08:19:35;;;;;;;11.13;4.78;;;;;;;;;;6305419;22;20016;-67
2023/07/18 08:22:02;;;;;;;9.52;4.70;;;;;;;;;;6305930;22;20011;-68
2023/07/18 08:24:30;;;;;;;11.93;4.80;;;;;;;;;;6305470;22;20076;-68
2023/07/18 08:26:56;;;;;;;7.68;4.95;;;;;;;;;;6149595;22;20001;-68
2023/07/18 08:29:30;;;;;;;7.80;4.75;;;;;;;;;;6149601;23;20089;-68
2023/07/18 08:31:56;;;;;;;11.38;5.00;;;;;;;;;;6148896;23;20009;-67
2023/07/18 08:34:21;;;;;;;10.85;5.10;;;;;;;;;;6149952;23;20006;-67
2023/07/18 08:36:47;;;;;;;15.13;6.50;;;;;;;;;;6149673;23;20013;-67
2023/07/18 08:39:14;;;;;;;13.77;5.75;;;;;;;;;;6172704;23;20024;-70
2023/07/18 08:41:43;;;;;;;8.55;5.45;;;;;;;;;;6149424;23;20010;-68
2023/07/18 08:44:13;;;;;;;8.73;5.20;;;;;;;;;;6149143;23;20010;-66
2023/07/18 08:46:45;;;;;;;10.65;4.47;;;;;;;;;;6149699;23;20092;-66
2023/07/18 08:49:14;;;;;;;7.40;4.78;;;;;;;;;;6305479;22;20015;-66
2023/07/18 08:51:41;;;;;;;7.45;4.80;;;;;;;;;;6149831;22;20309;-67
2023/07/18 08:54:07;;;;;;;10.48;5.10;;;;;;;;;;6149487;23;20009;-66
2023/07/18 08:56:33;;;;;;;7.63;4.72;;;;;;;;;;6306357;22;20006;-67
2023/07/18 08:59:00;;;;;;;9.07;5.15;;;;;;;;;;6150068;23;20009;-67
2023/07/18 09:01:26;;;;;;;8.75;4.97;;;;;;;;;;6150774;23;20013;-67
2023/07/18 09:03:52;;;;;;;6.32;5.03;;;;;;;;;;6305887;22;20007;-66
2023/07/18 09:06:19;;;;;;;11.15;5.65;;;;;;;;;;6305398;22;20498;-66
2023/07/18 09:08:45;;;;;;;10.57;5.32;;;;;;;;;;6304977;22;20011;-66
2023/07/18 09:11:14;;;;;;;10.65;5.22;;;;;;;;;;6306570;22;20060;-67
2023/07/18 09:13:43;;;;;;;11.43;5.32;;;;;;;;;;6305522;22;20011;-67
2023/07/18 09:16:15;;;;;;;8.65;4.80;;;;;;;;;;6305721;22;20019;-67
2023/07/18 09:18:51;;;;;;;8.82;5.22;;;;;;;;;;6305511;22;20015;-67
2023/07/18 09:21:17;;;;;;;9.30;4.95;;;;;;;;;;6305935;22;20034;-66
2023/07/18 09:23:44;;;;;;;7.03;5.43;;;;;;;;;;6305396;22;19999;-66
2023/07/18 09:26:21;;;;;;;24.23;6.68;;;;;;;;;;6149959;22;20009;-65
2023/07/18 09:28:48;;;;;;;10.90;5.18;;;;;;;;;;6305022;22;20007;-67
2023/07/18 09:31:25;;;;;;;9.23;4.65;;;;;;;;;;6304799;22;20003;-66
2023/07/18 09:33:53;;;;;;;11.05;5.25;;;;;;;;;;6303841;22;20341;-67
2023/07/18 09:36:22;;;;;;;15.02;6.50;;;;;;;;;;6303597;22;20066;-66
2023/07/18 09:38:49;;;;;;;9.73;6.03;;;;;;;;;;6305710;22;20003;-65
2023/07/18 09:41:19;;;;;;;8.07;5.38;;;;;;;;;;6304289;22;20003;-66
2023/07/18 09:43:45;;;;;;;7.32;5.05;;;;;;;;;;6305118;22;20384;-66
2023/07/18 09:46:13;;;;;;;7.13;5.00;;;;;;;;;;6279313;22;20003;-66
2023/07/18 09:48:40;;;;;;;6.93;4.88;;;;;;;;;;6306461;22;20018;-68
2023/07/18 09:51:20;;;;;;;8.60;4.78;;;;;;;;;;6305921;22;19999;-66
2023/07/18 09:53:47;;;;;;;13.30;5.53;;;;;;;;;;6149517;22;20424;-66
2023/07/18 09:56:16;;;;;;;8.15;5.32;;;;;;;;;;6149673;23;20005;-66
2023/07/18 09:58:44;;;;;;;7.65;4.55;;;;;;;;;;6149393;22;20084;-66
2023/07/18 10:01:12;;;;;;;7.05;4.88;;;;;;;;;;6149778;23;20001;-66
2023/07/18 10:03:39;;;;;;;9.82;5.10;;;;;;;;;;6149150;23;20013;-66
2023/07/18 10:06:10;;;;;;;8.68;4.93;;;;;;;;;;6149201;23;20021;-66
2023/07/18 10:08:40;;;;;;;9.43;5.18;;;;;;;;;;6149844;23;20356;-67
2023/07/18 10:11:11;;;;;;;8.40;5.38;;;;;;;;;;6149435;23;20365;-67
2023/07/18 10:14:06;;;;;;;9.93;5.38;;;;;;;;;;6149292;23;20001;-66
2023/07/18 10:16:35;;;;;;;12.68;5.38;;;;;;;;;;6143857;23;20013;-67
2023/07/18 10:19:17;;;;;;;10.32;5.18;;;;;;;;;;6149801;22;20029;-67
2023/07/18 10:21:45;;;;;;;7.00;5.05;;;;;;;;;;6305060;22;20504;-67
2023/07/18 10:24:20;;;;;;;7.70;5.45;;;;;;;;;;6304598;22;20006;-66
2023/07/18 10:26:48;;;;;;;9.50;4.95;;;;;;;;;;6149602;22;20095;-66
2023/07/18 10:29:14;;;;;;;7.10;5.30;;;;;;;;;;6149363;23;20008;-66
2023/07/18 10:31:40;;;;;;;8.95;5.30;;;;;;;;;;6149526;22;20009;-65
2023/07/18 10:34:09;;;;;;;10.90;5.18;;;;;;;;;;6149379;22;20001;-66
2023/07/18 10:36:36;;;;;;;9.60;5.05;;;;;;;;;;6305185;22;20011;-65
2023/07/18 10:39:09;;;;;;;11.23;5.50;;;;;;;;;;6305319;22;20003;-67
2023/07/18 10:41:35;;;;;;;;;;;;;;;;;;6150235;23;20347;-66
2023/07/18 10:44:01;;;;;;;9.93;4.90;;;;;;;;;;6150358;22;19908;-67
2023/07/18 10:46:38;;;;;;;9.20;5.10;;;;;;;;;;6148814;23;20013;-67
2023/07/18 10:49:04;;;;;;;10.02;5.63;;;;;;;;;;6150339;23;20455;-66
2023/07/18 10:51:31;;;;;;;6.57;4.88;;;;;;;;;;6148709;23;20402;-68
2023/07/18 10:53:58;;;;;;;7.07;5.20;;;;;;;;;;6150490;23;20010;-67
2023/07/18 10:56:24;;;;;;;9.50;5.82;;;;;;;;;;6150433;22;20017;-66
2023/07/18 10:58:51;;;;;;;8.20;4.97;;;;;;;;;;6253666;22;20009;-68
2023/07/18 11:01:17;;;;;;;9.35;5.47;;;;;;;;;;6150550;23;20005;-67
2023/07/18 11:03:47;;;;;;;10.55;5.07;;;;;;;;;;6307344;22;20352;-67
2023/07/18 11:06:16;;;;;;;10.82;5.30;;;;;;;;;;6151111;22;20010;-67
2023/07/18 11:08:45;;;;;;;9.48;5.10;;;;;;;;;;6149511;23;20386;-67
2023/07/18 11:11:14;;;;;;;8.18;5.45;;;;;;;;;;6150300;23;20020;-67
2023/07/18 11:13:43;;;;;;;9.75;5.10;;;;;;;;;;6150983;22;20048;-67
2023/07/18 11:16:12;;;;;;;8.93;5.30;;;;;;;;;;6307207;22;20082;-68
2023/07/18 11:18:40;;;;;;;8.25;4.90;;;;;;;;;;6307350;22;20003;-69
2023/07/18 11:21:07;;;;;;;9.82;5.22;;;;;;;;;;6304353;22;20018;-69
2023/07/18 11:23:34;;;;;;;10.07;4.85;;;;;;;;;;6305650;22;20090;-68
2023/07/18 11:26:14;;;;;;;8.77;5.05;;;;;;;;;;6150607;22;20013;-69
2023/07/18 11:28:43;;;;;;;8.57;5.50;;;;;;;;;;6149441;23;20083;-69
2023/07/18 11:31:28;;;;;;;9.45;5.25;;;;;;;;;;6149646;23;20006;-68
2023/07/18 11:33:56;;;;;;;8.80;5.03;;;;;;;;;;6149638;23;20092;-69
2023/07/18 11:36:26;;;;;;;6.40;4.50;;;;;;;;;;6149323;23;20002;-67
2023/07/18 11:38:52;;;;;;;9.80;5.28;;;;;;;;;;6149706;23;20084;-68
2023/07/18 11:41:40;;;;;;;8.23;5.07;;;;;;;;;;6150260;22;20010;-66
2023/07/18 11:44:08;;;;;;;8.10;4.97;;;;;;;;;;6149319;23;20151;-67
2023/07/18 11:46:42;;;;;;;7.60;5.00;;;;;;;;;;6148922;23;20339;-68
2023/07/18 11:49:18;;;;;;;13.48;5.63;;;;;;;;;;6149848;22;20014;-67
2023/07/18 11:51:43;;;;;;;7.05;5.03;;;;;;;;;;6149337;22;20014;-67
2023/07/18 11:54:09;;;;;;;6.57;4.53;;;;;;;;;;6148988;22;20005;-67
2023/07/18 11:56:37;;;;;;;13.05;5.18;;;;;;;;;;6304247;22;20425;-66
2023/07/18 11:59:03;;;;;;;5.57;4.97;;;;;;;;;;6305088;22;20053;-67
2023/07/18 12:01:33;;;;;;;8.02;5.22;;;;;;;;;;6306307;22;20331;-70
2023/07/18 12:03:59;;;;;;;10.70;5.28;;;;;;;;;;6305755;22;20090;-67
2023/07/18 12:06:24;;;;;;;6.50;4.20;;;;;;;;;;6306798;22;20006;-71
2023/07/18 12:08:52;;;;;;;11.35;4.63;;;;;;;;;;6306370;22;20015;-68
2023/07/18 12:11:18;;;;;;;8.45;5.03;;;;;;;;;;6150924;22;20016;-68
2023/07/18 12:13:44;;;;;;;8.82;4.88;;;;;;;;;;6306373;22;20007;-69
2023/07/18 12:16:10;;;;;;;6.20;4.68;;;;;;;;;;6306225;22;20368;-68
2023/07/18 12:18:36;;;;;;;6.72;4.28;;;;;;;;;;6150327;23;20021;-67
2023/07/18 12:21:02;;;;;;;6.68;4.10;;;;;;;;;;6150378;23;20002;-67
2023/07/18 12:23:28;;;;;;;13.35;4.60;;;;;;;;;;6173206;23;20009;-67
2023/07/18 12:25:53;;;;;;;11.65;5.55;;;;;;;;;;6279685;22;20010;-67
2023/07/18 12:28:19;;;;;;;7.72;5.28;;;;;;;;;;6149536;22;20021;-70
2023/07/18 12:30:45;;;;;;;6.68;4.53;;;;;;;;;;6150164;22;20005;-68
2023/07/18 12:33:12;;;;;;;11.38;4.85;;;;;;;;;;6148577;23;20063;-67
2023/07/18 12:35:39;;;;;;;6.50;4.43;;;;;;;;;;6150289;22;20036;-67
2023/07/18 12:38:06;;;;;;;10.60;4.68;;;;;;;;;;6306545;22;20049;-67
2023/07/18 12:40:32;;;;;;;8.13;4.50;;;;;;;;;;6279448;22;20301;-66
2023/07/18 12:42:58;;;;;;;9.80;4.32;;;;;;;;;;6306315;22;20011;-68
2023/07/18 12:45:24;;;;;;;9.68;4.97;;;;;;;;;;6151523;22;20009;-67
2023/07/18 12:47:50;;;;;;;7.90;4.70;;;;;;;;;;6150061;23;20017;-66
2023/07/18 12:50:15;;;;;;;18.85;5.75;;;;;;;;;;6306119;22;20003;-68
2023/07/18 12:52:41;;;;;;;5.95;4.85;;;;;;;;;;6305786;22;20003;-68
2023/07/18 12:55:07;;;;;;;7.38;4.60;;;;;;;;;;6306200;22;20003;-66
2023/07/18 12:57:33;;;;;;;11.95;4.85;;;;;;;;;;6305643;22;20394;-68
2023/07/18 12:59:58;;;;;;;7.53;4.90;;;;;;;;;;6305570;22;20018;-69
2023/07/18 13:02:24;;;;;;;7.97;4.70;;;;;;;;;;6149962;23;20097;-66
2023/07/18 13:04:50;;;;;;;10.98;5.40;;;;;;;;;;6277936;22;20009;-72
2023/07/18 13:07:15;;;;;;;12.60;5.13;;;;;;;;;;6172371;22;20104;-71
2023/07/18 13:09:42;;;;;;;10.10;5.30;;;;;;;;;;6304847;22;20026;-68
2023/07/18 13:12:08;;;;;;;13.85;5.65;;;;;;;;;;6148515;22;20485;-67
2023/07/18 13:14:34;;;;;;;13.20;5.47;;;;;;;;;;6149535;23;20071;-67
2023/07/18 13:17:00;;;;;;;7.63;5.32;;;;;;;;;;6306720;22;20429;-65
2023/07/18 13:19:25;;;;;;;6.70;5.45;;;;;;;;;;6304913;22;19995;-67
2023/07/18 13:21:51;;;;;;;14.93;5.88;;;;;;;;;;6305827;22;20018;-67
2023/07/18 13:24:17;;;;;;;9.13;5.20;;;;;;;;;;6306367;22;20007;-66
2023/07/18 13:26:43;;;;;;;7.10;5.18;;;;;;;;;;6306005;22;20011;-67
2023/07/18 13:29:08;;;;;;;8.10;5.60;;;;;;;;;;6278676;22;20086;-67
2023/07/18 13:31:34;;;;;;;9.98;5.45;;;;;;;;;;6306066;22;20011;-66
2023/07/18 13:34:01;;;;;;;8.15;4.82;;;;;;;;;;6252932;22;20362;-66
2023/07/18 13:36:28;;;;;;;7.80;4.90;;;;;;;;;;6306278;22;20014;-67
2023/07/18 13:38:54;;;;;;;6.07;4.68;;;;;;;;;;6305899;22;19999;-67
2023/07/18 13:41:20;;;;;;;10.82;5.40;;;;;;;;;;6150328;22;20101;-67
2023/07/18 13:43:45;;;;;;;9.27;5.15;;;;;;;;;;6150656;22;20010;-66
2023/07/18 13:46:12;;;;;;;7.53;5.07;;;;;;;;;;6150397;22;20045;-67
2023/07/18 13:48:38;;;;;;;8.65;5.10;;;;;;;;;;6150530;23;20322;-67
2023/07/18 13:51:04;;;;;;;8.25;4.78;;;;;;;;;;6306081;22;20011;-66
2023/07/18 13:53:29;;;;;;;7.60;5.22;;;;;;;;;;6305760;22;20045;-68
2023/07/18 13:55:55;;;;;;;8.50;5.15;;;;;;;;;;6306458;22;20015;-67
2023/07/18 13:58:21;;;;;;;6.63;5.03;;;;;;;;;;6278736;22;20406;-68
2023/07/18 14:00:47;;;;;;;8.25;5.60;;;;;;;;;;6305746;22;20017;-67
2023/07/18 14:03:13;;;;;;;9.45;5.63;;;;;;;;;;6305675;22;20248;-68
2023/07/18 14:05:39;;;;;;;5.93;5.25;;;;;;;;;;6305880;22;20003;-68
2023/07/18 14:08:04;;;;;;;8.63;5.00;;;;;;;;;;6253351;22;20023;-67
2023/07/18 14:10:30;;;;;;;8.93;5.25;;;;;;;;;;6150567;23;20343;-67
2023/07/18 14:12:56;;;;;;;8.35;5.50;;;;;;;;;;6149957;23;20446;-66
2023/07/18 14:15:22;;;;;;;8.40;5.40;;;;;;;;;;6306819;22;20007;-67
2023/07/18 14:17:47;;;;;;;10.32;5.65;;;;;;;;;;6307689;22;20401;-66
2023/07/18 14:20:14;;;;;;;9.95;6.28;;;;;;;;;;6151065;22;20051;-68
2023/07/18 14:22:40;;;;;;;16.05;5.85;;;;;;;;;;6150833;22;20043;-68
2023/07/18 14:25:06;;;;;;;9.95;5.70;;;;;;;;;;6308275;22;20041;-67
2023/07/18 14:27:32;;;;;;;7.78;5.45;;;;;;;;;;6229134;22;19997;-67
2023/07/18 14:29:58;;;;;;;11.23;5.60;;;;;;;;;;6150915;22;20037;-67
2023/07/18 14:32:23;;;;;;;9.23;5.68;;;;;;;;;;6151142;22;20029;-67
2023/07/18 14:34:49;;;;;;;8.65;5.43;;;;;;;;;;6151214;22;20020;-66
2023/07/18 14:37:15;;;;;;;10.13;5.43;;;;;;;;;;6150958;22;20077;-67
2023/07/18 14:39:41;;;;;;;7.68;5.32;;;;;;;;;;6307750;22;20090;-66